sensor_id;sensor_type;location;lat;lon;timestamp;pressure;altitude;pressure_sealevel;temperature;humidity
22018;BME280;11173;51.050;7.108;2023-04-06T00:02:20;67552.56;;;-149.45;100.00
22018;BME280;11173;51.050;7.108;2023-04-06T00:12:20;67552.56;;;-149.45;100.00
22018;BME280;11173;51.050;7.108;2023-04-06T00:22:21;67552.56;;;-149.45;100.00
22018;BME280;11173;51.050;7.108;2023-04-06T00:32:21;67552.56;;;-149.45;100.00
22018;BME280;11173;51.050;7.108;2023-04-06T00:42:22;67552.56;;;-149.45;100.00
22018;BME280;11173;51.050;7.108;2023-04-06T00:52:26;67552.56;;;-149.45;100.00
22018;BME280;11173;51.050;7.108;2023-04-06T01:02:26;67552.56;;;-149.45;100.00
22018;BME280;11173;51.050;7.108;2023-04-06T01:12:26;67552.56;;;-149.45;100.00
22018;BME280;11173;51.050;7.108;2023-04-06T01:22:27;67552.56;;;-149.45;100.00
22018;BME280;11173;51.050;7.108;2023-04-06T01:32:27;67552.56;;;-149.45;100.00
22018;BME280;11173;51.050;7.108;2023-04-06T01:42:27;67552.56;;;-149.45;100.00
22018;BME280;11173;51.050;7.108;2023-04-06T01:52:28;67552.56;;;-149.45;100.00
22018;BME280;11173;51.050;7.108;2023-04-06T02:02:29;67552.56;;;-149.45;100.00
22018;BME280;11173;51.050;7.108;2023-04-06T02:12:29;67552.56;;;-149.45;100.00
22018;BME280;11173;51.050;7.108;2023-04-06T02:22:30;67552.56;;;-149.45;100.00
22018;BME280;11173;51.050;7.108;2023-04-06T02:32:30;67552.56;;;-149.45;100.00
22018;BME280;11173;51.050;7.108;2023-04-06T02:42:30;67552.56;;;-149.45;100.00
22018;BME280;11173;51.050;7.108;2023-04-06T02:52:31;67552.56;;;-149.45;100.00
22018;BME280;11173;51.050;7.108;2023-04-06T03:02:32;67552.56;;;-149.45;100.00
22018;BME280;11173;51.050;7.108;2023-04-06T03:12:32;67552.56;;;-149.45;100.00
22018;BME280;11173;51.050;7.108;2023-04-06T03:22:33;67552.56;;;-149.45;100.00
22018;BME280;11173;51.050;7.108;2023-04-06T03:32:33;67552.56;;;-149.45;100.00
22018;BME280;11173;51.050;7.108;2023-04-06T03:42:33;67552.56;;;-149.45;100.00
22018;BME280;11173;51.050;7.108;2023-04-06T03:52:35;67552.56;;;-149.45;100.00
22018;BME280;11173;51.050;7.108;2023-04-06T04:02:35;67552.56;;;-149.45;100.00
22018;BME280;11173;51.050;7.108;2023-04-06T04:12:36;67552.56;;;-149.45;100.00
22018;BME280;11173;51.050;7.108;2023-04-06T04:22:36;67552.56;;;-149.45;100.00
22018;BME280;11173;51.050;7.108;2023-04-06T04:32:36;67552.56;;;-149.45;100.00
22018;BME280;11173;51.050;7.108;2023-04-06T04:42:37;67552.56;;;-149.45;100.00
22018;BME280;11173;51.050;7.108;2023-04-06T04:52:37;67552.56;;;-149.45;100.00
22018;BME280;11173;51.050;7.108;2023-04-06T05:02:38;67552.56;;;-149.45;100.00
22018;BME280;11173;51.050;7.108;2023-04-06T05:12:39;67552.56;;;-149.45;100.00
22018;BME280;11173;51.050;7.108;2023-04-06T05:22:40;67552.56;;;-149.45;100.00
22018;BME280;11173;51.050;7.108;2023-04-06T05:32:40;67552.56;;;-149.45;100.00
22018;BME280;11173;51.050;7.108;2023-04-06T05:42:42;67552.56;;;-149.45;100.00
22018;BME280;11173;51.050;7.108;2023-04-06T05:52:42;67552.56;;;-149.45;100.00
22018;BME280;11173;51.050;7.108;2023-04-06T06:02:45;67552.56;;;-149.45;100.00
22018;BME280;11173;51.050;7.108;2023-04-06T06:12:45;67552.56;;;-149.45;100.00
22018;BME280;11173;51.050;7.108;2023-04-06T06:22:46;67552.56;;;-149.45;100.00
22018;BME280;11173;51.050;7.108;2023-04-06T06:32:46;67552.56;;;-149.45;100.00
22018;BME280;11173;51.050;7.108;2023-04-06T06:42:46;67552.56;;;-149.45;100.00
22018;BME280;11173;51.050;7.108;2023-04-06T06:52:47;99770.03;;;3.01;50.92
22018;BME280;11173;51.050;7.108;2023-04-06T07:02:47;99592.91;;;3.12;50.85
22018;BME280;11173;51.050;7.108;2023-04-06T07:12:48;99580.63;;;3.36;50.56
22018;BME280;11173;51.050;7.108;2023-04-06T07:22:48;99569.28;;;3.72;50.43
22018;BME280;11173;51.050;7.108;2023-04-06T07:32:49;99573.56;;;4.07;51.74
22018;BME280;11173;51.050;7.108;2023-04-06T07:42:49;99566.47;;;4.43;51.56
22018;BME280;11173;51.050;7.108;2023-04-06T07:52:50;99559.81;;;5.03;54.73
22018;BME280;11173;51.050;7.108;2023-04-06T08:02:50;99580.31;;;5.75;54.95
22018;BME280;11173;51.050;7.108;2023-04-06T08:12:52;99563.03;;;6.18;54.41
22018;BME280;11173;51.050;7.108;2023-04-06T08:22:52;99561.88;;;6.51;52.80
22018;BME280;11173;51.050;7.108;2023-04-06T08:32:53;99570.94;;;7.06;53.96
22018;BME280;11173;51.050;7.108;2023-04-06T08:42:55;99558.88;;;7.70;54.98
22018;BME280;11173;51.050;7.108;2023-04-06T08:52:56;99550.69;;;8.19;54.99
22018;BME280;11173;51.050;7.108;2023-04-06T09:02:57;99550.44;;;8.54;52.88
22018;BME280;11173;51.050;7.108;2023-04-06T09:13:05;99550.91;;;8.94;54.58
22018;BME280;11173;51.050;7.108;2023-04-06T09:23:06;99549.44;;;9.55;52.25
22018;BME280;11173;51.050;7.108;2023-04-06T09:33:06;99549.78;;;10.19;54.79
22018;BME280;11173;51.050;7.108;2023-04-06T09:43:07;99548.63;;;10.90;55.61
22018;BME280;11173;51.050;7.108;2023-04-06T09:53:07;99538.31;;;11.51;54.44
22018;BME280;11173;51.050;7.108;2023-04-06T10:03:25;99534.59;;;12.14;53.27
22018;BME280;11173;51.050;7.108;2023-04-06T10:13:30;99521.59;;;12.57;49.60
22018;BME280;11173;51.050;7.108;2023-04-06T10:23:41;99523.53;;;12.76;52.37
22018;BME280;11173;51.050;7.108;2023-04-06T10:33:59;99528.03;;;13.03;53.92
22018;BME280;11173;51.050;7.108;2023-04-06T10:44:00;99514.69;;;13.23;52.45
22018;BME280;11173;51.050;7.108;2023-04-06T10:54:03;99510.84;;;13.59;55.08
22018;BME280;11173;51.050;7.108;2023-04-06T11:04:05;99512.06;;;14.00;52.64
22018;BME280;11173;51.050;7.108;2023-04-06T11:14:09;99505.84;;;14.57;53.34
22018;BME280;11173;51.050;7.108;2023-04-06T11:34:17;99480.59;;;15.26;44.77
22018;BME280;11173;51.050;7.108;2023-04-06T11:44:49;99478.97;;;15.38;52.02
22018;BME280;11173;51.050;7.108;2023-04-06T11:54:51;99474.97;;;15.48;50.12
22018;BME280;11173;51.050;7.108;2023-04-06T12:04:52;99481.31;;;15.71;45.86
22018;BME280;11173;51.050;7.108;2023-04-06T12:14:52;99479.63;;;15.74;50.16
22018;BME280;11173;51.050;7.108;2023-04-06T12:24:52;99480.22;;;15.68;47.28
22018;BME280;11173;51.050;7.108;2023-04-06T12:34:53;99470.09;;;15.71;49.57
22018;BME280;11173;51.050;7.108;2023-04-06T12:44:53;99474.25;;;15.57;46.70
22018;BME280;11173;51.050;7.108;2023-04-06T12:54:54;99476.47;;;15.40;48.08
22018;BME280;11173;51.050;7.108;2023-04-06T13:04:54;99459.19;;;15.42;47.84
22018;BME280;11173;51.050;7.108;2023-04-06T13:14:57;99460.84;;;15.61;47.66
22018;BME280;11173;51.050;7.108;2023-04-06T13:24:58;99462.03;;;15.51;45.96
22018;BME280;11173;51.050;7.108;2023-04-06T13:34:58;99458.06;;;15.17;47.56
22018;BME280;11173;51.050;7.108;2023-04-06T13:45:01;99465.59;;;14.98;46.93
22018;BME280;11173;51.050;7.108;2023-04-06T13:55:01;99472.84;;;14.74;47.22
22018;BME280;11173;51.050;7.108;2023-04-06T14:05:02;99470.91;;;14.36;47.26
22018;BME280;11173;51.050;7.108;2023-04-06T14:15:03;99478.66;;;14.19;48.29
22018;BME280;11173;51.050;7.108;2023-04-06T14:25:04;99489.13;;;13.63;47.69
22018;BME280;11173;51.050;7.108;2023-04-06T14:35:05;99488.03;;;12.89;45.93
22018;BME280;11173;51.050;7.108;2023-04-06T14:45:05;99480.22;;;12.19;49.70
22018;BME280;11173;51.050;7.108;2023-04-06T14:55:06;99484.19;;;11.48;46.43
22018;BME280;11173;51.050;7.108;2023-04-06T15:05:07;99486.31;;;11.01;49.90
22018;BME280;11173;51.050;7.108;2023-04-06T15:15:08;99475.53;;;10.59;52.57
22018;BME280;11173;51.050;7.108;2023-04-06T15:25:08;99474.75;;;10.35;53.60
22018;BME280;11173;51.050;7.108;2023-04-06T15:35:13;99477.44;;;10.15;54.45
22018;BME280;11173;51.050;7.108;2023-04-06T15:45:13;99477.03;;;9.89;55.18
22018;BME280;11173;51.050;7.108;2023-04-06T15:55:14;99475.88;;;9.60;56.07
22018;BME280;11173;51.050;7.108;2023-04-06T16:05:15;99463.97;;;9.28;56.81
22018;BME280;11173;51.050;7.108;2023-04-06T16:15:15;99478.03;;;9.14;57.58
22018;BME280;11173;51.050;7.108;2023-04-06T16:25:15;99480.25;;;8.92;57.58
22018;BME280;11173;51.050;7.108;2023-04-06T16:35:16;99492.34;;;8.71;58.45
22018;BME280;11173;51.050;7.108;2023-04-06T16:45:16;99489.44;;;8.44;58.35
22018;BME280;11173;51.050;7.108;2023-04-06T16:55:17;99480.13;;;8.16;59.05
22018;BME280;11173;51.050;7.108;2023-04-06T17:05:17;99486.25;;;7.96;59.58
22018;BME280;11173;51.050;7.108;2023-04-06T17:15:25;99476.03;;;7.83;59.95
22018;BME280;11173;51.050;7.108;2023-04-06T17:25:27;99478.88;;;7.68;60.27
22018;BME280;11173;51.050;7.108;2023-04-06T17:35:27;99474.22;;;7.51;60.86
22018;BME280;11173;51.050;7.108;2023-04-06T17:45:29;99470.31;;;7.38;60.98
22018;BME280;11173;51.050;7.108;2023-04-06T17:55:30;99465.59;;;7.24;61.25
22018;BME280;11173;51.050;7.108;2023-04-06T18:05:30;99475.16;;;7.08;61.69
22018;BME280;11173;51.050;7.108;2023-04-06T18:15:33;99464.94;;;6.94;61.95
22018;BME280;11173;51.050;7.108;2023-04-06T18:25:40;99459.81;;;6.82;62.17
22018;BME280;11173;51.050;7.108;2023-04-06T18:35:40;99466.16;;;6.68;62.40
22018;BME280;11173;51.050;7.108;2023-04-06T18:45:41;99449.19;;;6.55;62.30
22018;BME280;11173;51.050;7.108;2023-04-06T18:55:42;99457.53;;;6.41;62.69
22018;BME280;11173;51.050;7.108;2023-04-06T19:05:44;99462.66;;;6.32;63.17
22018;BME280;11173;51.050;7.108;2023-04-06T19:15:44;99458.72;;;6.26;63.53
22018;BME280;11173;51.050;7.108;2023-04-06T19:25:45;99459.53;;;6.23;63.83
22018;BME280;11173;51.050;7.108;2023-04-06T19:35:45;99443.69;;;6.16;64.04
22018;BME280;11173;51.050;7.108;2023-04-06T19:45:46;99435.00;;;6.10;63.99
22018;BME280;11173;51.050;7.108;2023-04-06T19:55:47;99431.06;;;6.08;64.33
22018;BME280;11173;51.050;7.108;2023-04-06T20:05:47;99428.69;;;6.06;64.35
22018;BME280;11173;51.050;7.108;2023-04-06T20:15:47;99418.44;;;6.07;64.76
22018;BME280;11173;51.050;7.108;2023-04-06T20:25:48;99408.53;;;6.02;65.06
22018;BME280;11173;51.050;7.108;2023-04-06T20:35:58;99397.47;;;6.02;64.97
22018;BME280;11173;51.050;7.108;2023-04-06T20:45:59;99397.88;;;6.01;65.37
22018;BME280;11173;51.050;7.108;2023-04-06T20:56:01;99388.38;;;5.98;65.57
22018;BME280;11173;51.050;7.108;2023-04-06T21:06:02;99382.09;;;6.05;65.44
22018;BME280;11173;51.050;7.108;2023-04-06T21:16:03;99363.13;;;6.07;66.00
22018;BME280;11173;51.050;7.108;2023-04-06T21:26:03;99360.31;;;6.10;65.81
22018;BME280;11173;51.050;7.108;2023-04-06T21:36:05;99368.22;;;6.15;66.04
22018;BME280;11173;51.050;7.108;2023-04-06T21:46:05;99354.78;;;6.17;66.47
22018;BME280;11173;51.050;7.108;2023-04-06T21:56:06;99343.34;;;6.23;66.41
22018;BME280;11173;51.050;7.108;2023-04-06T22:06:06;99332.25;;;6.26;66.39
22018;BME280;11173;51.050;7.108;2023-04-06T22:16:07;99335.41;;;6.32;66.91
22018;BME280;11173;51.050;7.108;2023-04-06T22:26:08;99326.31;;;6.39;66.35
22018;BME280;11173;51.050;7.108;2023-04-06T22:36:09;99324.31;;;6.43;66.59
22018;BME280;11173;51.050;7.108;2023-04-06T22:46:09;99315.97;;;6.46;66.70
22018;BME280;11173;51.050;7.108;2023-04-06T22:56:09;99308.09;;;6.45;66.87
22018;BME280;11173;51.050;7.108;2023-04-06T23:06:10;99305.69;;;6.54;67.00
22018;BME280;11173;51.050;7.108;2023-04-06T23:16:10;99295.38;;;6.54;67.12
22018;BME280;11173;51.050;7.108;2023-04-06T23:26:11;99292.22;;;6.60;67.09
22018;BME280;11173;51.050;7.108;2023-04-06T23:36:11;99285.88;;;6.63;67.19
22018;BME280;11173;51.050;7.108;2023-04-06T23:46:14;99290.59;;;6.66;67.25
22018;BME280;11173;51.050;7.108;2023-04-06T23:56:15;99291.78;;;6.68;67.62
